createdAt,value
2023-03-16T00:02:14.709Z,16.67
2023-03-16T00:04:40.962Z,16.17
2023-03-16T00:07:08.992Z,25.20
2023-03-16T00:09:36.401Z,19.27
2023-03-16T00:12:05.695Z,17.42
2023-03-16T00:14:32.398Z,15.75
2023-03-16T00:19:24.948Z,13.40
2023-03-16T00:21:51.750Z,12.25
2023-03-16T00:24:18.631Z,13.02
2023-03-16T00:29:11.854Z,13.40
2023-03-16T00:31:39.126Z,12.35
2023-03-16T00:34:05.374Z,13.82
2023-03-16T00:36:33.849Z,16.02
2023-03-16T00:39:00.118Z,13.68
2023-03-16T00:41:26.363Z,14.07
2023-03-16T00:43:53.673Z,13.25
2023-03-16T00:46:19.960Z,12.40
2023-03-16T00:48:47.265Z,12.27
2023-03-16T00:51:14.766Z,13.02
2023-03-16T00:53:42.575Z,11.98
2023-03-16T00:56:09.781Z,12.45
2023-03-16T00:58:36.796Z,13.48
2023-03-16T01:01:04.015Z,12.57
2023-03-16T01:03:30.331Z,12.90
2023-03-16T01:05:59.992Z,12.48
2023-03-16T01:08:27.992Z,12.82
2023-03-16T01:10:54.704Z,11.95
2023-03-16T01:13:21.681Z,11.65
2023-03-16T01:15:50.486Z,12.90
2023-03-16T01:18:16.726Z,13.93
2023-03-16T01:20:50.410Z,14.07
2023-03-16T01:23:22.546Z,12.90
2023-03-16T01:25:53.059Z,11.93
2023-03-16T01:28:24.574Z,13.02
2023-03-16T01:30:55.484Z,11.77
2023-03-16T01:33:22.260Z,11.77
2023-03-16T01:35:55.240Z,12.48
2023-03-16T01:38:21.886Z,13.30
2023-03-16T01:40:51.865Z,11.57
2023-03-16T01:43:18.811Z,12.70
2023-03-16T01:46:04.087Z,12.55
2023-03-16T01:48:37.464Z,12.43
2023-03-16T01:51:09.836Z,11.02
2023-03-16T01:53:36.500Z,11.23
2023-03-16T01:56:03.746Z,11.13
2023-03-16T01:58:30.779Z,11.25
2023-03-16T02:00:58.542Z,11.25
2023-03-16T02:03:26.444Z,11.27
2023-03-16T02:05:54.941Z,14.73
2023-03-16T02:08:22.831Z,14.13
2023-03-16T02:10:49.234Z,13.95
2023-03-16T02:13:15.486Z,12.93
2023-03-16T02:15:42.013Z,13.57
2023-03-16T02:18:08.735Z,13.45
2023-03-16T02:20:38.018Z,13.52
2023-03-16T02:23:05.160Z,15.80
2023-03-16T02:25:39.658Z,13.93
2023-03-16T02:28:05.881Z,13.38
2023-03-16T02:30:32.202Z,13.10
2023-03-16T02:32:58.555Z,11.68
2023-03-16T02:35:25.052Z,12.10
2023-03-16T02:37:52.544Z,14.65
2023-03-16T02:40:29.321Z,13.38
2023-03-16T02:42:55.845Z,12.20
2023-03-16T02:45:24.989Z,11.50
2023-03-16T02:47:53.365Z,11.55
2023-03-16T02:50:19.757Z,12.93
2023-03-16T02:52:47.912Z,14.15
2023-03-16T02:55:14.588Z,13.77
2023-03-16T02:57:40.831Z,12.30
2023-03-16T03:00:17.368Z,12.80
2023-03-16T03:02:43.906Z,11.52
2023-03-16T03:05:10.164Z,11.27
2023-03-16T03:07:37.166Z,12.02
2023-03-16T03:10:05.875Z,12.13
2023-03-16T03:12:35.155Z,13.23
2023-03-16T03:15:01.486Z,12.40
2023-03-16T03:17:30.397Z,13.35
2023-03-16T03:20:00.426Z,13.50
2023-03-16T03:22:26.789Z,14.48
2023-03-16T03:24:53.230Z,14.65
2023-03-16T03:27:20.108Z,14.30
2023-03-16T03:32:12.806Z,15.18
2023-03-16T03:34:39.040Z,14.30
2023-03-16T03:37:05.270Z,14.93
2023-03-16T03:39:31.509Z,15.40
2023-03-16T03:41:57.747Z,14.85
2023-03-16T03:44:24.511Z,15.80
2023-03-16T03:49:17.922Z,16.52
2023-03-16T03:51:44.455Z,16.83
2023-03-16T03:54:10.719Z,18.45
2023-03-16T03:56:36.922Z,18.33
2023-03-16T03:59:03.149Z,17.35
2023-03-16T04:01:29.399Z,19.83
2023-03-16T04:03:55.627Z,18.15
2023-03-16T04:06:21.850Z,19.48
2023-03-16T04:08:48.120Z,21.20
2023-03-16T04:11:14.353Z,21.25
2023-03-16T04:13:41.134Z,19.45
2023-03-16T04:16:07.732Z,21.20
2023-03-16T04:18:39.806Z,19.60
2023-03-16T04:21:06.310Z,20.83
2023-03-16T04:23:33.455Z,21.88
2023-03-16T04:26:00.034Z,22.67
2023-03-16T04:28:26.718Z,24.17
2023-03-16T04:30:56.162Z,20.35
2023-03-16T04:33:22.698Z,20.08
2023-03-16T04:35:49.117Z,22.58
2023-03-16T04:38:15.408Z,21.00
2023-03-16T04:40:41.639Z,20.67
2023-03-16T04:43:07.898Z,22.35
2023-03-16T04:45:34.179Z,20.90
2023-03-16T04:48:00.438Z,18.95
2023-03-16T04:50:26.912Z,20.08
2023-03-16T04:52:53.351Z,19.83
2023-03-16T04:55:19.568Z,20.48
2023-03-16T04:57:45.892Z,19.48
2023-03-16T05:00:18.640Z,19.55
2023-03-16T05:02:45.776Z,22.00
2023-03-16T05:05:12.048Z,19.80
2023-03-16T05:07:38.292Z,21.88
2023-03-16T05:10:04.705Z,19.80
2023-03-16T05:12:30.969Z,23.60
2023-03-16T05:14:57.521Z,22.58
2023-03-16T05:17:23.945Z,20.35
2023-03-16T05:19:50.322Z,20.20
2023-03-16T05:22:16.781Z,21.20
2023-03-16T05:24:43.047Z,22.17
2023-03-16T05:27:09.295Z,22.65
2023-03-16T05:29:35.663Z,21.60
2023-03-16T05:32:01.966Z,21.13
2023-03-16T05:34:28.207Z,20.02
2023-03-16T05:36:54.496Z,22.38
2023-03-16T05:39:20.744Z,21.15
2023-03-16T05:41:46.994Z,21.38
2023-03-16T05:44:13.548Z,21.65
2023-03-16T05:46:39.786Z,20.92
2023-03-16T05:49:06.056Z,21.95
2023-03-16T05:51:32.520Z,22.48
2023-03-16T05:53:58.850Z,17.83
2023-03-16T05:56:25.874Z,16.77
2023-03-16T05:58:55.478Z,17.80
2023-03-16T06:01:22.195Z,17.23
2023-03-16T06:03:49.315Z,18.80
2023-03-16T06:06:16.856Z,20.80
2023-03-16T06:08:43.203Z,19.17
2023-03-16T06:11:09.996Z,19.27
2023-03-16T06:13:36.215Z,16.88
2023-03-16T06:16:02.565Z,17.63
2023-03-16T06:18:29.091Z,16.92
2023-03-16T06:20:55.321Z,24.02
2023-03-16T06:23:21.715Z,40.78
2023-03-16T06:25:48.528Z,21.95
2023-03-16T06:30:41.081Z,44.63
2023-03-16T06:33:07.701Z,20.67
2023-03-16T06:35:34.351Z,17.58
2023-03-16T06:38:00.960Z,17.73
2023-03-16T06:40:27.493Z,17.52
2023-03-16T06:42:53.890Z,19.08
2023-03-16T06:45:22.137Z,19.45
2023-03-16T06:47:48.443Z,21.25
2023-03-16T06:50:14.758Z,20.08
2023-03-16T06:52:41.562Z,19.08
2023-03-16T06:57:34.200Z,18.83
2023-03-16T07:00:00.880Z,20.25
2023-03-16T07:02:27.173Z,19.08
2023-03-16T07:04:54.067Z,19.27
2023-03-16T07:09:46.651Z,20.27
2023-03-16T07:12:13.723Z,19.48
2023-03-16T07:14:42.006Z,19.48
2023-03-16T07:17:08.292Z,18.25
2023-03-16T07:19:34.724Z,20.83
2023-03-16T07:22:02.656Z,17.92
2023-03-16T07:24:29.671Z,16.50
2023-03-16T07:26:56.182Z,15.70
2023-03-16T07:29:22.962Z,15.85
2023-03-16T07:31:49.425Z,16.60
2023-03-16T07:34:15.729Z,15.65
2023-03-16T07:36:42.038Z,17.40
2023-03-16T07:39:08.354Z,15.98
2023-03-16T07:41:34.620Z,15.57
2023-03-16T07:44:00.840Z,16.13
2023-03-16T07:46:27.159Z,59.30
2023-03-16T07:48:53.446Z,93.97
2023-03-16T07:51:19.755Z,15.65
2023-03-16T07:53:45.974Z,17.02
2023-03-16T07:56:12.416Z,16.00
2023-03-16T07:58:38.710Z,133.75
2023-03-16T08:01:05.059Z,14.40
2023-03-16T08:03:31.981Z,18.17
2023-03-16T08:05:58.338Z,15.13
2023-03-16T08:08:24.919Z,27.52
2023-03-16T08:10:56.693Z,17.83
2023-03-16T08:13:23.427Z,14.70
2023-03-16T08:15:55.861Z,13.05
2023-03-16T08:18:23.753Z,13.48
2023-03-16T08:20:50.528Z,14.27
2023-03-16T08:23:17.218Z,13.43
2023-03-16T08:25:43.476Z,12.95
2023-03-16T08:28:10.645Z,12.55
2023-03-16T08:30:37.791Z,12.40
2023-03-16T08:33:04.515Z,11.80
2023-03-16T08:35:30.804Z,13.73
2023-03-16T08:37:57.127Z,11.48
2023-03-16T08:40:25.073Z,11.68
2023-03-16T08:42:51.418Z,11.10
2023-03-16T08:45:19.837Z,10.82
2023-03-16T08:47:46.248Z,10.40
2023-03-16T08:50:15.653Z,9.65
2023-03-16T08:52:42.780Z,11.00
2023-03-16T08:55:10.896Z,11.95
2023-03-16T08:57:39.222Z,10.20
2023-03-16T09:00:12.769Z,9.95
2023-03-16T09:02:40.548Z,17.88
2023-03-16T09:05:08.721Z,8.75
2023-03-16T09:07:36.240Z,9.68
2023-03-16T09:10:05.474Z,9.38
2023-03-16T09:12:32.381Z,8.95
2023-03-16T09:17:24.930Z,9.75
2023-03-16T09:19:52.890Z,9.10
2023-03-16T09:22:20.369Z,8.90
2023-03-16T09:24:47.169Z,9.63
2023-03-16T09:27:13.480Z,9.45
2023-03-16T09:29:40.996Z,9.32
2023-03-16T09:32:07.636Z,8.35
2023-03-16T09:34:34.328Z,8.15
2023-03-16T09:37:01.362Z,9.02
2023-03-16T09:39:27.642Z,8.43
2023-03-16T09:41:58.952Z,8.52
2023-03-16T09:44:43.792Z,8.80
2023-03-16T09:47:11.842Z,8.85
2023-03-16T09:49:42.649Z,8.15
2023-03-16T09:52:23.478Z,8.00
2023-03-16T09:55:00.731Z,8.50
2023-03-16T09:57:27.800Z,7.95
2023-03-16T09:59:55.351Z,7.93
2023-03-16T10:02:51.013Z,9.10
2023-03-16T10:05:20.555Z,7.80
2023-03-16T10:07:46.850Z,7.22
2023-03-16T10:10:25.287Z,7.15
2023-03-16T10:12:53.602Z,6.80
2023-03-16T10:15:27.639Z,7.07
2023-03-16T10:18:00.001Z,6.05
2023-03-16T10:20:27.360Z,7.57
2023-03-16T10:22:54.389Z,7.60
2023-03-16T10:25:44.006Z,6.47
2023-03-16T10:28:14.896Z,6.28
2023-03-16T10:30:43.001Z,5.75
2023-03-16T10:33:33.593Z,5.78
2023-03-16T10:36:02.621Z,5.38
2023-03-16T10:38:55.342Z,5.97
2023-03-16T10:41:25.767Z,5.90
2023-03-16T10:43:55.352Z,5.63
2023-03-16T10:46:22.183Z,4.82
2023-03-16T10:51:15.717Z,5.15
2023-03-16T10:53:43.722Z,5.15
2023-03-16T10:56:20.535Z,5.28
2023-03-16T10:58:46.813Z,5.53
2023-03-16T11:01:17.926Z,5.18
2023-03-16T11:03:47.872Z,5.63
2023-03-16T11:06:22.772Z,4.40
2023-03-16T11:08:49.033Z,4.07
2023-03-16T11:11:27.342Z,4.18
2023-03-16T11:13:56.790Z,3.90
2023-03-16T11:16:42.496Z,3.65
2023-03-16T11:19:20.609Z,3.40
2023-03-16T11:22:01.993Z,3.28
2023-03-16T11:25:01.746Z,3.67
2023-03-16T11:27:47.363Z,3.17
2023-03-16T11:30:16.590Z,5.43
2023-03-16T11:32:44.896Z,3.90
2023-03-16T11:35:19.538Z,3.42
2023-03-16T11:37:53.508Z,3.40
2023-03-16T11:40:33.133Z,3.08
2023-03-16T11:42:59.368Z,3.47
2023-03-16T11:45:34.779Z,3.25
2023-03-16T11:48:06.310Z,3.10
2023-03-16T11:50:39.461Z,3.03
2023-03-16T11:53:13.080Z,2.90
2023-03-16T11:55:48.661Z,3.03
2023-03-16T11:58:17.970Z,3.10
2023-03-16T12:00:44.906Z,2.97
2023-03-16T12:03:33.244Z,3.10
2023-03-16T12:06:13.612Z,3.55
2023-03-16T12:08:50.007Z,3.05
2023-03-16T12:11:28.753Z,3.10
2023-03-16T12:14:08.873Z,3.00
2023-03-16T12:16:49.153Z,2.90
2023-03-16T12:19:21.984Z,2.72
2023-03-16T12:21:51.580Z,2.50
2023-03-16T12:24:19.820Z,2.67
2023-03-16T12:26:46.163Z,2.80
2023-03-16T12:29:16.919Z,2.67
2023-03-16T12:31:55.882Z,2.53
2023-03-16T12:34:27.074Z,2.50
2023-03-16T12:37:05.724Z,2.45
2023-03-16T12:39:38.116Z,2.47
2023-03-16T12:42:23.398Z,2.33
2023-03-16T12:45:09.895Z,2.10
2023-03-16T12:47:42.909Z,1.97
2023-03-16T12:50:19.697Z,1.92
2023-03-16T12:52:47.355Z,2.60
2023-03-16T12:55:16.505Z,2.63
2023-03-16T12:57:43.393Z,1.90
2023-03-16T13:00:10.449Z,2.40
2023-03-16T13:02:38.051Z,2.35
2023-03-16T13:05:09.524Z,2.15
2023-03-16T13:07:36.500Z,2.45
2023-03-16T13:10:14.610Z,2.10
2023-03-16T13:12:43.777Z,2.53
2023-03-16T13:15:20.038Z,2.10
2023-03-16T13:17:47.764Z,2.13
2023-03-16T13:20:29.323Z,2.05
2023-03-16T13:23:15.645Z,2.50
2023-03-16T13:25:45.701Z,2.25
2023-03-16T13:28:16.974Z,1.85
2023-03-16T13:30:45.378Z,2.58
2023-03-16T13:33:19.753Z,2.45
2023-03-16T13:35:47.519Z,2.03
2023-03-16T13:38:15.793Z,2.03
2023-03-16T13:40:45.814Z,2.85
2023-03-16T13:43:14.881Z,2.10
2023-03-16T13:45:41.474Z,1.88
2023-03-16T13:48:11.567Z,5.82
2023-03-16T13:50:39.984Z,2.38
2023-03-16T13:53:13.260Z,2.17
2023-03-16T13:55:40.267Z,2.15
2023-03-16T13:58:17.894Z,1.45
2023-03-16T14:00:45.679Z,1.70
2023-03-16T14:03:20.024Z,1.98
2023-03-16T14:05:47.402Z,1.23
2023-03-16T14:08:18.472Z,1.73
2023-03-16T14:10:45.292Z,1.70
2023-03-16T14:13:25.766Z,2.17
2023-03-16T14:15:56.386Z,1.90
2023-03-16T14:18:24.690Z,1.70
2023-03-16T14:20:51.843Z,1.85
2023-03-16T14:23:24.479Z,1.40
2023-03-16T14:25:51.037Z,1.70
2023-03-16T14:30:51.509Z,2.10
2023-03-16T14:33:29.837Z,2.03
2023-03-16T14:35:57.352Z,2.25
2023-03-16T14:38:35.221Z,1.83
2023-03-16T14:41:07.494Z,2.17
2023-03-16T14:43:36.539Z,2.00
2023-03-16T14:46:04.793Z,2.70
2023-03-16T14:48:31.457Z,2.13
2023-03-16T14:50:59.174Z,1.80
2023-03-16T14:53:28.601Z,1.75
2023-03-16T14:55:58.536Z,2.15
2023-03-16T14:58:25.474Z,1.98
2023-03-16T15:00:53.627Z,2.35
2023-03-16T15:03:21.327Z,1.83
2023-03-16T15:05:48.778Z,2.25
2023-03-16T15:08:21.637Z,2.13
2023-03-16T15:10:48.533Z,1.70
2023-03-16T15:15:43.876Z,2.40
2023-03-16T15:18:10.210Z,2.53
2023-03-16T15:20:41.255Z,2.50
2023-03-16T15:23:10.655Z,2.20
2023-03-16T15:25:41.231Z,2.38
2023-03-16T15:28:12.564Z,2.10
2023-03-16T15:30:39.151Z,2.05
2023-03-16T15:33:06.054Z,2.00
2023-03-16T15:35:32.440Z,2.00
2023-03-16T15:37:59.596Z,2.30
2023-03-16T15:40:28.133Z,2.63
2023-03-16T15:42:54.700Z,2.83
2023-03-16T15:45:22.141Z,2.40
2023-03-16T15:47:49.590Z,2.13
2023-03-16T15:50:16.693Z,3.00
2023-03-16T15:52:45.320Z,2.30
2023-03-16T15:55:16.326Z,2.50
2023-03-16T15:57:42.629Z,4.43
2023-03-16T16:00:27.851Z,2.95
2023-03-16T16:02:55.720Z,3.30
2023-03-16T16:05:24.104Z,2.58
2023-03-16T16:07:51.845Z,2.28
2023-03-16T16:12:51.148Z,2.58
2023-03-16T16:15:20.081Z,1.98
2023-03-16T16:18:06.163Z,2.40
2023-03-16T16:20:35.544Z,2.17
2023-03-16T16:23:03.107Z,1.95
2023-03-16T16:25:35.176Z,2.30
2023-03-16T16:28:01.592Z,23.55
2023-03-16T16:30:29.414Z,2.10
2023-03-16T16:32:58.640Z,1.95
2023-03-16T16:35:26.914Z,2.47
2023-03-16T16:37:53.633Z,4.25
2023-03-16T16:40:21.806Z,10.60
2023-03-16T16:42:53.813Z,2.35
2023-03-16T16:45:21.750Z,2.95
2023-03-16T16:47:52.002Z,2.65
2023-03-16T16:50:20.761Z,2.33
2023-03-16T16:52:47.519Z,2.45
2023-03-16T16:55:14.042Z,2.60
2023-03-16T16:57:40.749Z,2.15
2023-03-16T17:00:17.313Z,2.05
2023-03-16T17:02:48.063Z,2.33
2023-03-16T17:05:16.514Z,2.78
2023-03-16T17:07:43.374Z,2.25
2023-03-16T17:10:16.318Z,2.40
2023-03-16T17:12:45.906Z,2.60
2023-03-16T17:15:18.290Z,3.42
2023-03-16T17:17:45.754Z,2.65
2023-03-16T17:20:24.833Z,11.70
2023-03-16T17:22:52.533Z,3.30
2023-03-16T17:25:18.911Z,2.75
2023-03-16T17:27:46.036Z,3.00
2023-03-16T17:30:23.289Z,2.70
2023-03-16T17:32:50.586Z,3.08
2023-03-16T17:35:17.850Z,2.30
2023-03-16T17:37:47.191Z,3.10
2023-03-16T17:40:17.912Z,3.25
2023-03-16T17:42:44.998Z,2.75
2023-03-16T17:45:16.376Z,2.67
2023-03-16T17:47:42.624Z,3.38
2023-03-16T17:50:14.510Z,2.60
2023-03-16T17:52:40.931Z,2.97
2023-03-16T17:55:07.898Z,4.40
2023-03-16T18:00:01.535Z,2.50
2023-03-16T18:02:30.883Z,2.65
2023-03-16T18:04:57.111Z,3.00
2023-03-16T18:07:23.346Z,3.00
2023-03-16T18:09:49.597Z,2.55
2023-03-16T18:12:16.538Z,2.70
2023-03-16T18:17:16.748Z,2.85
2023-03-16T18:19:43.714Z,3.05
2023-03-16T18:24:36.267Z,3.33
2023-03-16T18:27:03.371Z,3.13
2023-03-16T18:29:30.180Z,3.20
2023-03-16T18:31:56.879Z,3.30
2023-03-16T18:34:23.847Z,3.95
2023-03-16T18:36:51.445Z,4.13
2023-03-16T18:39:20.167Z,3.35
2023-03-16T18:41:46.935Z,3.45
2023-03-16T18:44:18.279Z,3.35
2023-03-16T18:46:45.279Z,3.03
2023-03-16T18:51:37.740Z,3.50
2023-03-16T18:54:06.238Z,2.65
2023-03-16T18:56:32.767Z,3.75
2023-03-16T18:58:59.046Z,3.22
2023-03-16T19:01:32.832Z,2.80
2023-03-16T19:03:59.718Z,3.33
2023-03-16T19:06:27.142Z,3.20
2023-03-16T19:08:53.801Z,4.03
2023-03-16T19:11:20.101Z,3.33
2023-03-16T19:13:49.742Z,3.95
2023-03-16T19:16:17.711Z,3.75
2023-03-16T19:18:44.227Z,4.03
2023-03-16T19:21:18.390Z,3.67
2023-03-16T19:23:47.550Z,3.75
2023-03-16T19:26:15.200Z,3.58
2023-03-16T19:28:42.493Z,4.15
2023-03-16T19:31:17.588Z,4.35
2023-03-16T19:33:43.954Z,3.90
2023-03-16T19:36:15.464Z,3.72
2023-03-16T19:38:41.770Z,4.00
2023-03-16T19:41:18.432Z,4.30
2023-03-16T19:43:44.654Z,3.97
2023-03-16T19:46:14.409Z,3.22
2023-03-16T19:48:42.243Z,3.88
2023-03-16T19:51:17.160Z,3.25
2023-03-16T19:53:43.769Z,3.42
2023-03-16T19:56:14.484Z,3.47
2023-03-16T19:58:42.636Z,3.17
2023-03-16T20:01:20.023Z,3.50
2023-03-16T20:03:47.597Z,3.50
2023-03-16T20:06:18.470Z,3.38
2023-03-16T20:08:45.279Z,3.00
2023-03-16T20:11:21.987Z,3.53
2023-03-16T20:13:48.423Z,3.43
2023-03-16T20:16:15.933Z,3.75
2023-03-16T20:18:42.279Z,3.58
2023-03-16T20:21:13.402Z,3.80
2023-03-16T20:23:39.609Z,3.60
2023-03-16T20:26:06.100Z,3.50
2023-03-16T20:28:36.203Z,3.58
2023-03-16T20:31:03.041Z,3.80
2023-03-16T20:33:29.307Z,3.55
2023-03-16T20:35:56.156Z,3.10
2023-03-16T20:38:22.741Z,3.40
2023-03-16T20:40:51.015Z,3.40
2023-03-16T20:43:17.301Z,4.03
2023-03-16T20:45:43.748Z,3.20
2023-03-16T20:48:13.817Z,4.18
2023-03-16T20:50:40.075Z,4.40
2023-03-16T20:53:06.384Z,3.22
2023-03-16T20:55:32.819Z,4.53
2023-03-16T20:57:59.099Z,4.20
2023-03-16T21:00:26.483Z,5.00
2023-03-16T21:02:54.589Z,4.80
2023-03-16T21:05:21.274Z,5.22
2023-03-16T21:07:47.671Z,5.30
2023-03-16T21:10:15.291Z,4.78
2023-03-16T21:12:43.312Z,5.13
2023-03-16T21:15:35.698Z,5.47
2023-03-16T21:18:07.210Z,4.70
2023-03-16T21:20:34.548Z,4.82
2023-03-16T21:23:01.436Z,4.45
2023-03-16T21:27:56.204Z,4.88
2023-03-16T21:32:48.822Z,4.38
2023-03-16T21:35:15.455Z,4.55
2023-03-16T21:37:41.712Z,4.95
2023-03-16T21:40:18.499Z,4.70
2023-03-16T21:42:45.760Z,4.50
2023-03-16T21:45:12.608Z,4.93
2023-03-16T21:47:39.051Z,4.38
2023-03-16T21:50:32.080Z,4.18
2023-03-16T21:52:58.316Z,3.78
2023-03-16T21:55:29.151Z,5.57
2023-03-16T21:57:56.465Z,4.20
2023-03-16T22:00:24.234Z,4.13
2023-03-16T22:02:51.806Z,4.05
2023-03-16T22:05:30.171Z,3.65
2023-03-16T22:07:57.967Z,3.75
2023-03-16T22:10:25.956Z,3.92
2023-03-16T22:12:52.716Z,3.80
2023-03-16T22:15:20.625Z,3.75
2023-03-16T22:17:47.088Z,3.80
2023-03-16T22:20:17.749Z,3.70
2023-03-16T22:22:44.484Z,3.55
2023-03-16T22:25:14.945Z,4.57
2023-03-16T22:27:41.359Z,3.95
2023-03-16T22:30:14.975Z,5.95
2023-03-16T22:32:41.710Z,4.60
2023-03-16T22:35:10.065Z,5.78
2023-03-16T22:37:36.369Z,4.53
2023-03-16T22:40:03.476Z,5.15
2023-03-16T22:42:37.876Z,6.10
2023-03-16T22:45:15.219Z,5.57
2023-03-16T22:47:41.463Z,4.47
2023-03-16T22:50:09.278Z,4.18
2023-03-16T22:52:36.976Z,4.13
2023-03-16T22:55:03.708Z,4.00
2023-03-16T22:57:30.296Z,4.00
2023-03-16T22:59:56.933Z,4.60
2023-03-16T23:02:25.356Z,4.22
2023-03-16T23:04:51.973Z,4.03
2023-03-16T23:07:18.262Z,4.45
2023-03-16T23:09:44.547Z,4.43
2023-03-16T23:12:14.926Z,4.50
2023-03-16T23:14:42.161Z,4.93
2023-03-16T23:17:18.989Z,4.40
2023-03-16T23:19:45.618Z,5.35
2023-03-16T23:22:12.178Z,5.05
2023-03-16T23:24:38.512Z,5.25
2023-03-16T23:27:06.599Z,5.00
2023-03-16T23:29:32.971Z,4.93
2023-03-16T23:34:34.157Z,5.60
2023-03-16T23:37:00.628Z,5.60
2023-03-16T23:39:28.332Z,4.95
2023-03-16T23:41:54.759Z,5.53
2023-03-16T23:44:23.039Z,6.00
2023-03-16T23:46:49.680Z,5.53
2023-03-16T23:49:21.923Z,6.00
2023-03-16T23:51:48.199Z,5.75
2023-03-16T23:54:19.074Z,5.95
2023-03-16T23:56:45.310Z,6.10
2023-03-16T23:59:11.605Z,7.32
